Knox, North Dakota
Current Conditions -  °F | °C
As of 9:35 AM on Friday 28 Nov 2014 (Local Time) from KRUG Reporting Station
Broken Clouds Broken Clouds  
Wind Chill: -8°   Ceiling: 2400
Heat Index:   Visibility: 9mi
Dew Point:   Wind: 14mph
Humidity: 85%   Direction: 110°ESE
Pressure: 29.83"   Gusts: NA
Location:  48.34°N, 99.69°W
Report Text: KRUG 281535Z AUTO 11012KT 9SM FEW002 SCT006 BKN024 M13/M15 A2983 RMK AO2
Loading
Personal Weather Stations






























Interactive Weather Map New forecast layout! Learn more

10-Day Weather Forecast

Advertisements
Track Severe Weather on mobile